createdAt,value
2023-03-17T00:02:20.106Z,8.8
2023-03-17T00:05:08.063Z,8.7
2023-03-17T00:07:55.999Z,8.7
2023-03-17T00:10:43.635Z,8.7
2023-03-17T00:13:31.540Z,8.6
2023-03-17T00:16:19.410Z,8.6
2023-03-17T00:19:07.552Z,8.6
2023-03-17T00:21:55.273Z,8.6
2023-03-17T00:24:43.611Z,8.6
2023-03-17T00:27:31.236Z,8.6
2023-03-17T00:30:19.061Z,8.6
2023-03-17T00:33:06.909Z,8.6
2023-03-17T00:35:54.759Z,8.5
2023-03-17T00:38:42.633Z,8.5
2023-03-17T00:41:30.465Z,8.5
2023-03-17T00:44:18.299Z,8.5
2023-03-17T00:47:06.703Z,8.5
2023-03-17T00:49:54.892Z,8.5
2023-03-17T00:52:42.682Z,8.5
2023-03-17T00:55:30.405Z,8.5
2023-03-17T00:58:18.296Z,8.5
2023-03-17T01:01:06.113Z,8.5
2023-03-17T01:03:53.941Z,8.6
2023-03-17T01:06:41.845Z,8.6
2023-03-17T01:09:30.037Z,8.6
2023-03-17T01:12:17.669Z,8.6
2023-03-17T01:15:06.419Z,8.6
2023-03-17T01:17:54.153Z,8.6
2023-03-17T01:20:42.176Z,8.7
2023-03-17T01:23:30.035Z,8.8
2023-03-17T01:26:17.863Z,8.8
2023-03-17T01:29:05.543Z,8.8
2023-03-17T01:31:53.327Z,8.8
2023-03-17T01:34:41.083Z,8.8
2023-03-17T01:37:28.976Z,8.8
2023-03-17T01:40:16.726Z,8.7
2023-03-17T01:43:04.618Z,8.6
2023-03-17T01:45:52.407Z,8.5
2023-03-17T01:48:40.287Z,8.5
2023-03-17T01:51:28.018Z,8.5
2023-03-17T01:54:15.876Z,8.5
2023-03-17T01:57:03.690Z,8.6
2023-03-17T01:59:51.471Z,8.6
2023-03-17T02:02:39.206Z,8.6
2023-03-17T02:05:26.903Z,8.6
2023-03-17T02:08:14.771Z,8.6
2023-03-17T02:11:02.581Z,8.6
2023-03-17T02:13:50.388Z,8.6
2023-03-17T02:16:38.225Z,8.6
2023-03-17T02:19:25.999Z,8.6
2023-03-17T02:22:13.897Z,8.5
2023-03-17T02:25:01.722Z,8.5
2023-03-17T02:27:49.731Z,8.4
2023-03-17T02:30:37.568Z,8.4
2023-03-17T02:33:25.736Z,8.4
2023-03-17T02:36:13.482Z,8.4
2023-03-17T02:39:01.519Z,8.4
2023-03-17T02:41:49.290Z,8.3
2023-03-17T02:44:37.050Z,8.3
2023-03-17T02:47:24.914Z,8.3
2023-03-17T02:50:12.645Z,8.3
2023-03-17T02:53:00.477Z,8.3
2023-03-17T02:55:48.360Z,8.3
2023-03-17T02:58:36.207Z,8.3
2023-03-17T03:01:24.209Z,8.2
2023-03-17T03:04:12.068Z,8.2
2023-03-17T03:06:59.957Z,8.2
2023-03-17T03:09:47.692Z,8.2
2023-03-17T03:12:35.673Z,8.2
2023-03-17T03:15:23.408Z,8.1
2023-03-17T03:18:11.166Z,8.1
2023-03-17T03:20:59.434Z,8.1
2023-03-17T03:23:47.223Z,8.1
2023-03-17T03:26:34.972Z,8
2023-03-17T03:29:22.736Z,8
2023-03-17T03:32:10.464Z,8
2023-03-17T03:34:58.216Z,8
2023-03-17T03:37:46.105Z,8
2023-03-17T03:40:33.811Z,8
2023-03-17T03:43:23.622Z,8
2023-03-17T03:46:11.951Z,8
2023-03-17T03:48:59.723Z,8
2023-03-17T03:51:47.629Z,8
2023-03-17T03:54:35.630Z,8.1
2023-03-17T03:57:23.373Z,8.1
2023-03-17T04:00:11.121Z,8
2023-03-17T04:02:59.118Z,8
2023-03-17T04:05:47.032Z,8
2023-03-17T04:08:35.039Z,8
2023-03-17T04:11:22.767Z,8
2023-03-17T04:14:10.604Z,8.1
2023-03-17T04:16:58.425Z,8.1
2023-03-17T04:19:46.456Z,8.1
2023-03-17T04:22:34.141Z,8.1
2023-03-17T04:25:22.054Z,8
2023-03-17T04:28:09.909Z,8
2023-03-17T04:30:58.113Z,8
2023-03-17T04:33:45.942Z,8
2023-03-17T04:36:33.790Z,8
2023-03-17T04:39:21.573Z,8
2023-03-17T04:42:09.280Z,8
2023-03-17T04:44:57.172Z,8
2023-03-17T04:47:45.012Z,8
2023-03-17T04:50:33.281Z,8
2023-03-17T04:53:21.495Z,8
2023-03-17T04:56:09.481Z,8
2023-03-17T04:58:59.599Z,8
2023-03-17T05:01:47.516Z,8
2023-03-17T05:04:35.246Z,8
2023-03-17T05:07:22.891Z,8.1
2023-03-17T05:10:10.515Z,8.1
2023-03-17T05:12:58.237Z,8
2023-03-17T05:15:46.102Z,8.1
2023-03-17T05:18:33.948Z,8
2023-03-17T05:21:21.756Z,8
2023-03-17T05:24:09.565Z,8
2023-03-17T05:26:57.353Z,8
2023-03-17T05:29:45.083Z,8
2023-03-17T05:32:32.976Z,8
2023-03-17T05:35:20.954Z,7.9
2023-03-17T05:38:08.889Z,7.8
2023-03-17T05:40:57.083Z,7.8
2023-03-17T05:43:44.959Z,7.8
2023-03-17T05:46:32.934Z,7.8
2023-03-17T05:49:21.027Z,7.8
2023-03-17T05:52:08.788Z,7.8
2023-03-17T05:54:56.613Z,7.8
2023-03-17T05:57:44.456Z,7.8
2023-03-17T06:00:32.735Z,7.8
2023-03-17T06:03:21.111Z,7.8
2023-03-17T06:06:09.186Z,7.8
2023-03-17T06:08:57.057Z,7.8
2023-03-17T06:11:44.875Z,7.8
2023-03-17T06:14:32.738Z,7.8
2023-03-17T06:17:20.631Z,7.9
2023-03-17T06:20:08.268Z,8
2023-03-17T06:23:04.245Z,8
2023-03-17T06:25:53.698Z,8.1
2023-03-17T06:28:41.653Z,8.1
2023-03-17T06:31:29.522Z,8.3
2023-03-17T06:34:17.565Z,8.5
2023-03-17T06:37:06.894Z,8.8
2023-03-17T06:39:54.697Z,9
2023-03-17T06:42:42.419Z,9.2
2023-03-17T06:45:30.554Z,9.4
2023-03-17T06:48:18.939Z,9.5
2023-03-17T06:51:06.872Z,9.5
2023-03-17T06:53:54.655Z,9.7
2023-03-17T06:56:57.473Z,9.8
2023-03-17T06:59:45.275Z,10.1
2023-03-17T07:02:33.158Z,10.2
2023-03-17T07:05:20.992Z,10.3
2023-03-17T07:08:08.892Z,10.4
2023-03-17T07:10:56.718Z,10.4
2023-03-17T07:13:44.623Z,10.4
2023-03-17T07:16:32.649Z,10.6
2023-03-17T07:19:20.629Z,10.7
2023-03-17T07:22:08.369Z,10.9
2023-03-17T07:24:56.344Z,11
2023-03-17T07:27:43.954Z,11.3
2023-03-17T07:30:31.749Z,11.5
2023-03-17T07:33:19.696Z,11.7
2023-03-17T07:36:07.700Z,12.1
2023-03-17T07:38:55.769Z,12.5
2023-03-17T07:41:43.658Z,12.7
2023-03-17T07:44:31.400Z,12.8
2023-03-17T07:47:19.309Z,12.9
2023-03-17T07:50:10.398Z,13
2023-03-17T07:52:58.315Z,13
2023-03-17T07:55:46.069Z,12.9
2023-03-17T07:58:33.989Z,12.6
2023-03-17T08:01:21.643Z,12.5
2023-03-17T08:04:10.254Z,12.5
2023-03-17T08:06:58.327Z,12.5
2023-03-17T08:09:46.117Z,12.5
2023-03-17T08:12:33.859Z,12.8
2023-03-17T08:15:21.668Z,13
2023-03-17T08:18:09.353Z,13.1
2023-03-17T08:20:57.733Z,13.3
2023-03-17T08:23:45.634Z,13.3
2023-03-17T08:26:33.617Z,13.5
2023-03-17T08:29:21.507Z,13.6
2023-03-17T08:32:09.346Z,13.6
2023-03-17T08:34:57.024Z,13.5
2023-03-17T08:37:44.977Z,13.5
2023-03-17T08:40:32.944Z,13.4
2023-03-17T08:43:21.241Z,13.6
2023-03-17T08:46:09.104Z,14
2023-03-17T08:48:57.057Z,14.4
2023-03-17T08:51:47.240Z,15
2023-03-17T08:54:35.219Z,15.8
2023-03-17T08:57:22.872Z,16.6
2023-03-17T09:00:10.710Z,16.9
2023-03-17T09:02:58.520Z,16.8
2023-03-17T09:05:46.370Z,16.6
2023-03-17T09:08:34.142Z,16.6
2023-03-17T09:11:22.010Z,16.8
2023-03-17T09:14:09.720Z,17.2
2023-03-17T09:16:57.797Z,17.5
2023-03-17T09:19:45.590Z,17.7
2023-03-17T09:22:33.437Z,18
2023-03-17T09:25:21.071Z,18
2023-03-17T09:28:08.859Z,17.8
2023-03-17T09:30:56.694Z,17.6
2023-03-17T09:33:44.515Z,17.2
2023-03-17T09:36:32.240Z,16.9
2023-03-17T09:39:20.441Z,16.9
2023-03-17T09:42:07.962Z,17
2023-03-17T09:44:55.886Z,17.2
2023-03-17T09:47:43.756Z,17.6
2023-03-17T09:50:31.774Z,18.5
2023-03-17T09:53:20.165Z,18.6
2023-03-17T09:56:07.976Z,18
2023-03-17T09:58:55.677Z,17.8
2023-03-17T10:01:43.616Z,17.8
2023-03-17T10:04:31.450Z,17.6
2023-03-17T10:07:19.030Z,17.2
2023-03-17T10:10:06.712Z,17
2023-03-17T10:12:54.393Z,17
2023-03-17T10:15:42.281Z,17.4
2023-03-17T10:18:30.360Z,17.6
2023-03-17T10:21:19.890Z,18
2023-03-17T10:24:07.626Z,18.5
2023-03-17T10:26:55.202Z,18.6
2023-03-17T10:29:42.935Z,18.8
2023-03-17T10:32:30.758Z,19
2023-03-17T10:35:18.835Z,19.4
2023-03-17T10:38:14.229Z,19.8
2023-03-17T10:41:02.388Z,20.3
2023-03-17T10:43:50.148Z,20.7
2023-03-17T10:46:38.008Z,20.8
2023-03-17T10:49:25.866Z,20.5
2023-03-17T10:52:13.672Z,20.2
2023-03-17T10:55:01.277Z,20.2
2023-03-17T10:57:49.111Z,20.6
2023-03-17T11:00:36.796Z,21
2023-03-17T11:03:24.639Z,21.3
2023-03-17T11:06:12.370Z,21.3
2023-03-17T11:09:00.175Z,20.8
2023-03-17T11:11:49.531Z,20
2023-03-17T11:14:37.250Z,19.3
2023-03-17T11:17:24.746Z,18.8
2023-03-17T11:20:12.408Z,18.5
2023-03-17T11:23:00.036Z,18.2
2023-03-17T11:25:47.921Z,18.2
2023-03-17T11:28:35.604Z,18.3
2023-03-17T11:31:23.367Z,18.2
2023-03-17T11:34:11.219Z,18.1
2023-03-17T11:37:00.082Z,18.1
2023-03-17T11:39:47.817Z,17.8
2023-03-17T11:42:35.675Z,17.7
2023-03-17T11:45:23.427Z,17.8
2023-03-17T11:48:11.003Z,18
2023-03-17T11:50:59.094Z,18.2
2023-03-17T11:53:46.634Z,18.4
2023-03-17T11:56:34.361Z,18.7
2023-03-17T11:59:22.137Z,19.1
2023-03-17T12:02:09.816Z,19.7
2023-03-17T12:04:57.430Z,20
2023-03-17T12:07:45.022Z,20.2
2023-03-17T12:10:33.098Z,20.6
2023-03-17T12:13:21.069Z,20.9
2023-03-17T12:16:09.198Z,20.9
2023-03-17T12:18:57.179Z,20.5
2023-03-17T12:21:44.924Z,20
2023-03-17T12:24:32.747Z,19.7
2023-03-17T12:27:20.418Z,19.5
2023-03-17T12:30:08.158Z,19.4
2023-03-17T12:32:56.132Z,19.4
2023-03-17T12:35:44.001Z,19.4
2023-03-17T12:38:31.768Z,19.4
2023-03-17T12:41:19.500Z,19.4
2023-03-17T12:44:07.201Z,19.4
2023-03-17T12:46:54.855Z,19.3
2023-03-17T12:49:42.712Z,19.1
2023-03-17T12:52:30.317Z,18.9
2023-03-17T12:55:18.009Z,18.7
2023-03-17T12:58:05.634Z,18.5
2023-03-17T13:00:53.453Z,18.3
2023-03-17T13:03:41.280Z,18.3
2023-03-17T13:06:29.081Z,18.3
2023-03-17T13:09:16.787Z,18.3
2023-03-17T13:12:04.448Z,18.2
2023-03-17T13:14:52.174Z,18.2
2023-03-17T13:17:39.910Z,18.2
2023-03-17T13:20:27.635Z,18.3
2023-03-17T13:23:15.482Z,18.4
2023-03-17T13:26:03.467Z,18.3
2023-03-17T13:28:51.179Z,18.4
2023-03-17T13:31:38.952Z,18.4
2023-03-17T13:34:26.656Z,18.5
2023-03-17T13:37:14.341Z,18.4
2023-03-17T13:40:02.144Z,18.3
2023-03-17T13:42:49.794Z,18.1
2023-03-17T13:45:37.434Z,18
2023-03-17T13:48:25.118Z,17.8
2023-03-17T13:51:15.085Z,17.8
2023-03-17T13:54:03.141Z,17.7
2023-03-17T13:56:50.965Z,17.6
2023-03-17T13:59:38.701Z,17.6
2023-03-17T14:02:26.439Z,17.5
2023-03-17T14:05:14.171Z,17.5
2023-03-17T14:08:02.059Z,17.5
2023-03-17T14:10:49.631Z,17.6
2023-03-17T14:13:37.284Z,17.6
2023-03-17T14:16:25.176Z,17.6
2023-03-17T14:19:13.009Z,17.6
2023-03-17T14:22:00.714Z,17.6
2023-03-17T14:24:48.390Z,17.6
2023-03-17T14:27:35.980Z,17.7
2023-03-17T14:30:23.830Z,17.8
2023-03-17T14:33:11.738Z,17.9
2023-03-17T14:36:00.583Z,18
2023-03-17T14:38:48.392Z,18
2023-03-17T14:41:36.108Z,18.1
2023-03-17T14:44:23.746Z,18.2
2023-03-17T14:47:12.230Z,18.4
2023-03-17T14:49:59.933Z,18.9
2023-03-17T14:52:47.716Z,19.4
2023-03-17T14:55:35.397Z,19.3
2023-03-17T14:58:23.113Z,18.8
2023-03-17T15:01:10.774Z,18.4
2023-03-17T15:03:58.970Z,18.1
2023-03-17T15:06:46.732Z,18
2023-03-17T15:09:41.740Z,17.8
2023-03-17T15:12:29.313Z,17.8
2023-03-17T15:15:16.892Z,17.6
2023-03-17T15:18:04.404Z,17.6
2023-03-17T15:20:52.024Z,17.6
2023-03-17T15:23:39.680Z,17.5
2023-03-17T15:26:27.231Z,17.4
2023-03-17T15:29:14.810Z,17.3
2023-03-17T15:32:02.516Z,17.2
2023-03-17T15:34:50.258Z,17
2023-03-17T15:37:37.810Z,16.9
2023-03-17T15:40:25.507Z,16.8
2023-03-17T15:43:13.348Z,16.8
2023-03-17T15:46:00.897Z,16.7
2023-03-17T15:48:48.758Z,16.7
2023-03-17T15:51:36.267Z,16.7
2023-03-17T15:54:23.954Z,16.6
2023-03-17T15:57:11.677Z,16.6
2023-03-17T15:59:59.223Z,16.6
2023-03-17T16:02:46.951Z,16.6
2023-03-17T16:05:34.679Z,16.5
2023-03-17T16:08:22.379Z,16.5
2023-03-17T16:11:10.176Z,16.4
2023-03-17T16:13:57.934Z,16.4
2023-03-17T16:16:45.685Z,16.2
2023-03-17T16:19:33.442Z,16.2
2023-03-17T16:22:21.128Z,16.1
2023-03-17T16:25:08.752Z,16
2023-03-17T16:27:56.587Z,16
2023-03-17T16:30:44.336Z,15.8
2023-03-17T16:33:32.106Z,15.8
2023-03-17T16:36:19.681Z,15.8
2023-03-17T16:39:07.363Z,15.7
2023-03-17T16:41:55.000Z,15.6
2023-03-17T16:44:42.907Z,15.6
2023-03-17T16:47:30.820Z,15.6
2023-03-17T16:50:18.561Z,15.5
2023-03-17T16:53:06.385Z,15.4
2023-03-17T16:55:54.404Z,15.4
2023-03-17T16:58:42.051Z,15.3
2023-03-17T17:01:30.003Z,15.3
2023-03-17T17:04:17.826Z,15.2
2023-03-17T17:07:05.599Z,15.2
2023-03-17T17:09:53.293Z,15.1
2023-03-17T17:12:41.033Z,15
2023-03-17T17:15:28.650Z,15
2023-03-17T17:18:16.512Z,14.9
2023-03-17T17:21:04.321Z,14.8
2023-03-17T17:23:53.113Z,14.7
2023-03-17T17:26:40.914Z,14.7
2023-03-17T17:29:30.689Z,14.6
2023-03-17T17:32:20.234Z,14.5
2023-03-17T17:35:08.072Z,14.4
2023-03-17T17:37:55.678Z,14.4
2023-03-17T17:40:43.423Z,14.3
2023-03-17T17:43:31.212Z,14.2
2023-03-17T17:46:19.129Z,14.2
2023-03-17T17:49:06.890Z,14.2
2023-03-17T17:51:54.676Z,14.1
2023-03-17T17:54:42.232Z,14.1
2023-03-17T17:57:29.831Z,14.1
2023-03-17T18:00:17.483Z,14
2023-03-17T18:03:05.216Z,14
2023-03-17T18:05:52.894Z,14
2023-03-17T18:08:40.737Z,14
2023-03-17T18:11:28.677Z,13.9
2023-03-17T18:14:16.447Z,13.9
2023-03-17T18:17:04.333Z,13.9
2023-03-17T18:19:52.020Z,13.9
2023-03-17T18:22:39.708Z,13.9
2023-03-17T18:25:27.484Z,13.9
2023-03-17T18:28:15.272Z,13.9
2023-03-17T18:31:03.779Z,13.9
2023-03-17T18:33:51.544Z,13.9
2023-03-17T18:36:39.158Z,13.8
2023-03-17T18:39:26.862Z,13.8
2023-03-17T18:42:14.766Z,13.7
2023-03-17T18:45:02.673Z,13.7
2023-03-17T18:47:50.414Z,13.6
2023-03-17T18:50:37.898Z,13.6
2023-03-17T18:53:25.668Z,13.5
2023-03-17T18:56:13.246Z,13.5
2023-03-17T18:59:01.127Z,13.5
2023-03-17T19:01:49.028Z,13.5
2023-03-17T19:04:36.806Z,13.4
2023-03-17T19:07:24.487Z,13.3
2023-03-17T19:10:12.259Z,13.3
2023-03-17T19:13:00.005Z,13.3
2023-03-17T19:15:47.841Z,13.2
2023-03-17T19:18:35.471Z,13.1
2023-03-17T19:21:23.248Z,13.1
2023-03-17T19:24:12.274Z,13.1
2023-03-17T19:27:00.237Z,13
2023-03-17T19:29:47.838Z,12.9
2023-03-17T19:32:35.854Z,12.8
2023-03-17T19:35:23.797Z,12.8
2023-03-17T19:38:11.540Z,12.7
2023-03-17T19:40:59.467Z,12.7
2023-03-17T19:44:07.324Z,12.7
2023-03-17T19:46:55.001Z,12.6
2023-03-17T19:49:42.711Z,12.6
2023-03-17T19:52:30.397Z,12.5
2023-03-17T19:55:18.212Z,12.5
2023-03-17T19:58:05.988Z,12.5
2023-03-17T20:00:53.614Z,12.5
2023-03-17T20:03:41.189Z,12.5
2023-03-17T20:06:28.876Z,12.5
2023-03-17T20:09:16.550Z,12.5
2023-03-17T20:12:04.292Z,12.5
2023-03-17T20:14:52.071Z,12.5
2023-03-17T20:17:39.816Z,12.5
2023-03-17T20:20:27.472Z,12.5
2023-03-17T20:23:15.296Z,12.5
2023-03-17T20:26:03.008Z,12.5
2023-03-17T20:28:50.624Z,12.5
2023-03-17T20:31:38.341Z,12.5
2023-03-17T20:34:26.103Z,12.6
2023-03-17T20:37:13.874Z,12.6
2023-03-17T20:40:01.530Z,12.6
2023-03-17T20:42:49.201Z,12.6
2023-03-17T20:45:37.035Z,12.6
2023-03-17T20:48:24.804Z,12.6
2023-03-17T20:51:12.437Z,12.5
2023-03-17T20:54:00.171Z,12.6
2023-03-17T20:56:47.973Z,12.5
2023-03-17T20:59:35.728Z,12.5
2023-03-17T21:02:23.673Z,12.5
2023-03-17T21:05:11.324Z,12.5
2023-03-17T21:07:58.928Z,12.5
2023-03-17T21:10:46.617Z,12.5
2023-03-17T21:13:34.467Z,12.5
2023-03-17T21:16:22.359Z,12.5
2023-03-17T21:19:10.318Z,12.5
2023-03-17T21:21:58.046Z,12.5
2023-03-17T21:24:45.734Z,12.5
2023-03-17T21:27:33.404Z,12.5
2023-03-17T21:30:21.175Z,12.4
2023-03-17T21:33:09.029Z,12.4
2023-03-17T21:35:57.143Z,12.3
2023-03-17T21:38:44.891Z,12.3
2023-03-17T21:41:32.579Z,12.3
2023-03-17T21:44:20.206Z,12.3
2023-03-17T21:47:07.861Z,12.2
2023-03-17T21:49:55.553Z,12.2
2023-03-17T21:52:43.353Z,12.2
2023-03-17T21:55:30.949Z,12.2
2023-03-17T21:58:18.613Z,12.1
2023-03-17T22:01:13.544Z,12.1
2023-03-17T22:04:01.618Z,12
2023-03-17T22:06:49.647Z,12
2023-03-17T22:09:37.371Z,12
2023-03-17T22:12:25.128Z,12
2023-03-17T22:15:12.842Z,11.9
2023-03-17T22:18:00.472Z,11.9
2023-03-17T22:20:48.326Z,11.8
2023-03-17T22:23:35.935Z,11.8
2023-03-17T22:26:23.563Z,11.7
2023-03-17T22:29:11.144Z,11.7
2023-03-17T22:31:58.978Z,11.7
2023-03-17T22:34:46.863Z,11.7
2023-03-17T22:37:34.618Z,11.7
2023-03-17T22:40:22.207Z,11.5
2023-03-17T22:43:09.856Z,11.5
2023-03-17T22:45:57.564Z,11.5
2023-03-17T22:48:45.522Z,11.5
2023-03-17T22:51:33.203Z,11.5
2023-03-17T22:54:21.063Z,11.5
2023-03-17T22:57:08.720Z,11.4
2023-03-17T22:59:56.351Z,11.4
2023-03-17T23:02:46.746Z,11.4
2023-03-17T23:05:34.482Z,11.4
2023-03-17T23:08:22.162Z,11.4
2023-03-17T23:11:09.966Z,11.3
2023-03-17T23:13:57.678Z,11.3
2023-03-17T23:16:45.385Z,11.2
2023-03-17T23:19:33.226Z,11.1
2023-03-17T23:22:20.872Z,11.1
2023-03-17T23:25:08.656Z,11.1
2023-03-17T23:27:56.564Z,11.1
2023-03-17T23:30:44.225Z,11
2023-03-17T23:33:32.113Z,11
2023-03-17T23:36:19.945Z,11
2023-03-17T23:39:07.670Z,11
2023-03-17T23:41:55.397Z,10.9
2023-03-17T23:44:43.259Z,10.9
2023-03-17T23:47:30.962Z,10.8
2023-03-17T23:50:18.604Z,10.8
2023-03-17T23:53:06.380Z,10.8
2023-03-17T23:55:54.116Z,10.8
2023-03-17T23:58:41.994Z,10.8
